createdAt,value
2023-01-01T00:00:31.108Z,10.93
2023-01-01T00:03:16.536Z,10.90
2023-01-01T00:06:01.406Z,10.85
2023-01-01T00:08:46.236Z,11.04
2023-01-01T00:11:31.186Z,10.82
2023-01-01T00:14:16.209Z,10.94
2023-01-01T00:17:01.187Z,11.05
2023-01-01T00:19:45.941Z,11.02
2023-01-01T00:25:35.971Z,10.92
2023-01-01T00:28:21.042Z,10.52
2023-01-01T00:31:05.915Z,11.00
2023-01-01T00:33:50.970Z,11.08
2023-01-01T00:36:35.833Z,10.80
2023-01-01T00:39:20.895Z,10.77
2023-01-01T00:42:05.657Z,10.92
2023-01-01T00:44:50.545Z,11.01
2023-01-01T00:47:35.288Z,11.06
2023-01-01T00:50:20.175Z,10.70
2023-01-01T00:53:05.133Z,11.06
2023-01-01T00:55:49.984Z,11.07
2023-01-01T00:58:34.830Z,10.98
2023-01-01T01:01:19.728Z,10.92
2023-01-01T01:04:04.628Z,11.18
2023-01-01T01:06:49.380Z,11.32
2023-01-01T01:09:34.337Z,11.25
2023-01-01T01:12:19.283Z,11.16
2023-01-01T01:15:04.125Z,10.83
2023-01-01T01:17:49.077Z,10.76
2023-01-01T01:20:33.855Z,10.91
2023-01-01T01:23:18.766Z,10.70
2023-01-01T01:26:03.477Z,10.91
2023-01-01T01:28:49.940Z,11.04
2023-01-01T01:31:35.549Z,11.10
2023-01-01T01:34:27.155Z,11.03
2023-01-01T01:37:12.858Z,11.04
2023-01-01T01:39:57.857Z,10.85
2023-01-01T01:42:42.611Z,11.23
2023-01-01T01:45:33.166Z,10.98
2023-01-01T01:48:18.581Z,10.70
2023-01-01T01:51:03.402Z,11.02
2023-01-01T01:53:48.366Z,10.92
2023-01-01T01:56:33.106Z,10.98
2023-01-01T01:59:18.101Z,10.74
2023-01-01T02:02:03.132Z,10.91
2023-01-01T02:04:48.245Z,10.81
2023-01-01T02:07:33.032Z,10.67
2023-01-01T02:10:17.729Z,10.72
2023-01-01T02:13:02.632Z,10.65
2023-01-01T02:15:47.564Z,10.59
2023-01-01T02:18:32.492Z,10.51
2023-01-01T02:21:17.385Z,10.72
2023-01-01T02:24:02.274Z,10.65
2023-01-01T02:26:47.182Z,10.63
2023-01-01T02:29:31.964Z,10.58
2023-01-01T02:32:16.879Z,10.45
2023-01-01T02:35:01.759Z,10.51
2023-01-01T02:37:46.699Z,10.59
2023-01-01T02:40:31.728Z,10.52
2023-01-01T02:43:21.509Z,10.82
2023-01-01T02:46:09.777Z,10.54
2023-01-01T02:48:54.463Z,10.61
2023-01-01T02:51:39.456Z,10.60
2023-01-01T02:54:24.421Z,10.52
2023-01-01T02:57:09.245Z,10.53
2023-01-01T02:59:54.440Z,10.62
2023-01-01T03:02:41.682Z,10.55
2023-01-01T03:05:30.100Z,10.72
2023-01-01T03:08:15.051Z,10.61
2023-01-01T03:10:59.824Z,10.60
2023-01-01T03:13:44.680Z,10.38
2023-01-01T03:16:29.481Z,10.72
2023-01-01T03:19:14.469Z,10.43
2023-01-01T03:21:59.356Z,10.33
2023-01-01T03:24:44.244Z,10.56
2023-01-01T03:27:29.210Z,10.34
2023-01-01T03:30:14.070Z,10.21
2023-01-01T03:32:59.162Z,10.11
2023-01-01T03:35:43.958Z,10.39
2023-01-01T03:38:28.919Z,9.93
2023-01-01T03:41:13.759Z,10.25
2023-01-01T03:43:58.708Z,10.23
2023-01-01T03:46:43.588Z,10.32
2023-01-01T03:49:28.333Z,10.55
2023-01-01T03:52:13.286Z,10.10
2023-01-01T03:54:59.215Z,10.54
2023-01-01T03:57:44.673Z,10.50
2023-01-01T04:00:29.442Z,10.44
2023-01-01T04:03:14.472Z,10.62
2023-01-01T04:05:59.247Z,10.59
2023-01-01T04:08:44.190Z,10.23
2023-01-01T04:11:28.985Z,10.40
2023-01-01T04:14:13.933Z,10.60
2023-01-01T04:16:58.887Z,10.30
2023-01-01T04:19:43.760Z,10.33
2023-01-01T04:22:28.890Z,10.44
2023-01-01T04:25:13.732Z,10.60
2023-01-01T04:27:58.700Z,10.58
2023-01-01T04:33:27.678Z,10.51
2023-01-01T04:36:12.492Z,10.41
2023-01-01T04:38:57.357Z,10.45
2023-01-01T04:41:42.362Z,10.16
2023-01-01T04:44:27.115Z,10.01
2023-01-01T04:47:12.068Z,9.97
2023-01-01T04:49:56.960Z,10.21
2023-01-01T04:52:41.899Z,10.41
2023-01-01T04:55:26.782Z,10.23
2023-01-01T04:58:11.750Z,10.04
2023-01-01T05:00:56.728Z,10.05
2023-01-01T05:03:41.437Z,10.17
2023-01-01T05:06:26.341Z,10.45
2023-01-01T05:09:11.175Z,10.31
2023-01-01T05:11:56.200Z,10.09
2023-01-01T05:14:40.990Z,10.27
2023-01-01T05:17:25.954Z,10.21
2023-01-01T05:20:10.772Z,9.95
2023-01-01T05:22:55.579Z,10.62
2023-01-01T05:25:40.337Z,10.97
2023-01-01T05:28:25.153Z,10.97
2023-01-01T05:31:10.186Z,10.85
2023-01-01T05:33:54.987Z,10.79
2023-01-01T05:36:39.887Z,10.90
2023-01-01T05:39:24.787Z,10.86
2023-01-01T05:42:09.676Z,10.82
2023-01-01T05:44:54.508Z,10.72
2023-01-01T05:47:39.470Z,10.39
2023-01-01T05:50:24.337Z,10.52
2023-01-01T05:53:09.254Z,10.71
2023-01-01T05:55:54.091Z,10.75
2023-01-01T05:58:38.972Z,10.51
2023-01-01T06:01:24.145Z,10.70
2023-01-01T06:04:08.957Z,10.52
2023-01-01T06:06:53.881Z,10.44
2023-01-01T06:09:38.659Z,10.38
2023-01-01T06:12:23.437Z,10.46
2023-01-01T06:15:08.219Z,10.41
2023-01-01T06:17:53.260Z,10.53
2023-01-01T06:20:38.262Z,10.32
2023-01-01T06:23:23.205Z,10.29
2023-01-01T06:26:08.271Z,10.35
2023-01-01T06:28:53.111Z,10.34
2023-01-01T06:31:40.839Z,10.34
2023-01-01T06:34:25.966Z,10.29
2023-01-01T06:37:10.954Z,10.45
2023-01-01T06:39:56.018Z,10.43
2023-01-01T06:42:40.855Z,10.32
2023-01-01T06:45:25.781Z,10.78
2023-01-01T06:48:10.720Z,10.41
2023-01-01T06:50:55.691Z,10.01
2023-01-01T06:53:40.537Z,10.27
2023-01-01T06:56:25.359Z,10.08
2023-01-01T06:59:10.221Z,10.18
2023-01-01T07:01:55.155Z,10.27
2023-01-01T07:04:40.712Z,10.10
2023-01-01T07:07:27.040Z,10.47
2023-01-01T07:10:13.871Z,10.10
2023-01-01T07:12:58.759Z,10.11
2023-01-01T07:15:43.647Z,10.12
2023-01-01T07:18:28.455Z,10.08
2023-01-01T07:21:13.296Z,10.14
2023-01-01T07:23:58.258Z,10.18
2023-01-01T07:26:43.072Z,10.16
2023-01-01T07:29:28.049Z,10.35
2023-01-01T07:32:12.896Z,10.54
2023-01-01T07:34:57.843Z,10.33
2023-01-01T07:37:42.753Z,10.56
2023-01-01T07:40:27.558Z,10.46
2023-01-01T07:43:12.518Z,10.31
2023-01-01T07:45:57.344Z,10.65
2023-01-01T07:48:42.220Z,10.59
2023-01-01T07:51:27.102Z,10.49
2023-01-01T07:54:11.992Z,10.51
2023-01-01T07:56:56.792Z,10.55
2023-01-01T07:59:41.924Z,10.61
2023-01-01T08:02:26.931Z,10.34
2023-01-01T08:05:12.250Z,10.44
2023-01-01T08:07:57.144Z,10.42
2023-01-01T08:10:41.921Z,10.05
2023-01-01T08:13:26.921Z,10.08
2023-01-01T08:16:11.868Z,10.35
2023-01-01T08:18:57.126Z,10.05
2023-01-01T08:21:41.945Z,10.01
2023-01-01T08:24:26.821Z,10.03
2023-01-01T08:27:11.673Z,10.09
2023-01-01T08:29:56.583Z,10.43
2023-01-01T08:32:41.565Z,10.73
2023-01-01T08:35:26.462Z,10.54
2023-01-01T08:38:11.358Z,10.55
2023-01-01T08:40:56.186Z,10.76
2023-01-01T08:43:41.054Z,10.79
2023-01-01T08:46:25.834Z,10.69
2023-01-01T08:49:11.170Z,10.59
2023-01-01T08:51:56.026Z,10.68
2023-01-01T08:54:40.958Z,10.97
2023-01-01T08:57:25.761Z,10.94
2023-01-01T09:00:10.640Z,11.00
2023-01-01T09:02:55.770Z,10.90
2023-01-01T09:05:40.897Z,11.07
2023-01-01T09:08:25.688Z,11.46
2023-01-01T09:11:10.509Z,11.56
2023-01-01T09:13:55.330Z,11.70
2023-01-01T09:16:44.169Z,11.44
2023-01-01T09:19:29.649Z,11.64
2023-01-01T09:22:14.726Z,11.56
2023-01-01T09:24:59.603Z,12.12
2023-01-01T09:27:44.483Z,12.23
2023-01-01T09:30:29.529Z,12.54
2023-01-01T09:33:14.353Z,12.51
2023-01-01T09:35:59.266Z,12.44
2023-01-01T09:38:44.194Z,12.54
2023-01-01T09:41:29.048Z,12.66
2023-01-01T09:44:13.803Z,12.90
2023-01-01T09:46:58.623Z,12.81
2023-01-01T09:52:28.662Z,12.88
2023-01-01T09:55:13.493Z,13.11
2023-01-01T09:57:58.393Z,13.58
2023-01-01T10:00:43.311Z,13.88
2023-01-01T10:03:28.555Z,13.36
2023-01-01T10:06:13.602Z,13.11
2023-01-01T10:08:58.482Z,13.78
2023-01-01T10:11:43.477Z,13.10
2023-01-01T10:14:28.281Z,13.10
2023-01-01T10:17:13.546Z,13.42
2023-01-01T10:19:58.847Z,13.40
2023-01-01T10:22:43.642Z,13.60
2023-01-01T10:25:28.576Z,13.49
2023-01-01T10:28:13.361Z,13.97
2023-01-01T10:30:58.226Z,13.68
2023-01-01T10:33:43.097Z,13.69
2023-01-01T10:36:28.105Z,14.74
2023-01-01T10:39:13.052Z,14.73
2023-01-01T10:41:57.882Z,15.10
2023-01-01T10:44:42.955Z,15.27
2023-01-01T10:47:27.803Z,15.44
2023-01-01T10:50:12.683Z,15.57
2023-01-01T10:52:57.628Z,15.72
2023-01-01T10:55:42.458Z,15.69
2023-01-01T10:58:27.345Z,16.07
2023-01-01T11:01:12.394Z,16.32
2023-01-01T11:03:57.777Z,16.38
2023-01-01T11:06:42.696Z,16.16
2023-01-01T11:09:27.620Z,16.14
2023-01-01T11:12:38.316Z,16.00
2023-01-01T11:15:17.672Z,16.21
2023-01-01T11:18:02.630Z,16.34
2023-01-01T11:20:47.490Z,16.65
2023-01-01T11:23:32.391Z,16.54
2023-01-01T11:26:17.185Z,16.78
2023-01-01T11:29:02.083Z,16.87
2023-01-01T11:31:46.805Z,16.96
2023-01-01T11:34:31.766Z,17.09
2023-01-01T11:37:16.654Z,17.01
2023-01-01T11:40:01.501Z,17.00
2023-01-01T11:42:47.135Z,16.77
2023-01-01T11:45:37.427Z,17.21
2023-01-01T11:48:22.769Z,17.41
2023-01-01T11:51:07.601Z,17.40
2023-01-01T11:53:52.512Z,17.76
2023-01-01T11:56:37.405Z,17.42
2023-01-01T11:59:22.228Z,17.78
2023-01-01T12:02:07.234Z,17.39
2023-01-01T12:04:52.087Z,17.55
2023-01-01T12:07:37.042Z,17.66
2023-01-01T12:10:21.895Z,17.86
2023-01-01T12:13:06.719Z,17.90
2023-01-01T12:15:51.766Z,17.68
2023-01-01T12:18:36.755Z,18.22
2023-01-01T12:21:21.591Z,18.33
2023-01-01T12:24:06.427Z,18.45
2023-01-01T12:26:51.369Z,18.57
2023-01-01T12:29:36.243Z,18.57
2023-01-01T12:32:21.141Z,18.34
2023-01-01T12:35:06.008Z,17.88
2023-01-01T12:37:50.817Z,18.60
2023-01-01T12:40:35.686Z,18.68
2023-01-01T12:43:20.534Z,18.93
2023-01-01T12:46:05.480Z,18.84
2023-01-01T12:48:50.186Z,18.76
2023-01-01T12:51:35.366Z,18.90
2023-01-01T12:54:20.534Z,19.04
2023-01-01T12:57:05.329Z,19.02
2023-01-01T12:59:50.160Z,19.08
2023-01-01T13:02:35.030Z,18.30
2023-01-01T13:05:20.425Z,18.95
2023-01-01T13:08:05.327Z,18.98
2023-01-01T13:10:50.257Z,18.93
2023-01-01T13:13:35.019Z,19.02
2023-01-01T13:16:20.066Z,19.03
2023-01-01T13:19:04.890Z,18.49
2023-01-01T13:21:49.737Z,18.47
2023-01-01T13:24:34.652Z,18.34
2023-01-01T13:27:19.512Z,17.94
2023-01-01T13:30:04.405Z,17.57
2023-01-01T13:32:49.277Z,16.71
2023-01-01T13:35:34.150Z,17.50
2023-01-01T13:38:18.896Z,17.96
2023-01-01T13:41:03.782Z,18.29
2023-01-01T13:43:48.535Z,18.12
2023-01-01T13:46:33.427Z,18.45
2023-01-01T13:49:18.804Z,18.65
2023-01-01T13:52:05.888Z,18.75
2023-01-01T13:54:52.609Z,18.75
2023-01-01T13:57:37.485Z,18.30
2023-01-01T14:00:22.441Z,18.70
2023-01-01T14:03:08.534Z,18.78
2023-01-01T14:05:53.609Z,19.10
2023-01-01T14:08:38.569Z,19.33
2023-01-01T14:11:23.314Z,19.49
2023-01-01T14:14:08.378Z,19.07
2023-01-01T14:16:53.351Z,19.68
2023-01-01T14:19:38.231Z,19.84
2023-01-01T14:22:23.193Z,20.08
2023-01-01T14:25:09.581Z,19.97
2023-01-01T14:27:54.950Z,20.06
2023-01-01T14:30:39.776Z,20.15
2023-01-01T14:33:24.679Z,20.20
2023-01-01T14:36:09.453Z,20.20
2023-01-01T14:38:54.212Z,20.12
2023-01-01T14:41:39.122Z,20.13
2023-01-01T14:44:23.978Z,20.22
2023-01-01T14:47:08.969Z,20.06
2023-01-01T14:49:53.719Z,19.84
2023-01-01T14:52:38.824Z,19.16
2023-01-01T14:55:23.694Z,18.31
2023-01-01T14:58:08.625Z,18.55
2023-01-01T15:00:53.543Z,18.43
2023-01-01T15:03:38.430Z,17.91
2023-01-01T15:06:23.573Z,17.71
2023-01-01T15:09:08.703Z,16.89
2023-01-01T15:11:53.632Z,17.13
2023-01-01T15:14:38.548Z,16.84
2023-01-01T15:17:23.274Z,16.78
2023-01-01T15:20:08.142Z,16.18
2023-01-01T15:22:53.625Z,16.46
2023-01-01T15:25:38.505Z,15.90
2023-01-01T15:28:23.292Z,15.44
2023-01-01T15:31:08.268Z,15.76
2023-01-01T15:33:53.142Z,15.13
2023-01-01T15:36:38.141Z,15.11
2023-01-01T15:39:23.051Z,14.98
2023-01-01T15:42:08.036Z,14.91
2023-01-01T15:44:52.974Z,14.82
2023-01-01T15:47:37.794Z,14.38
2023-01-01T15:50:22.655Z,14.50
2023-01-01T15:53:07.572Z,14.28
2023-01-01T15:55:52.458Z,13.98
2023-01-01T15:58:37.255Z,14.27
2023-01-01T16:01:22.333Z,14.25
2023-01-01T16:04:07.765Z,13.79
2023-01-01T16:06:52.650Z,14.05
2023-01-01T16:09:37.364Z,13.98
2023-01-01T16:12:22.374Z,13.90
2023-01-01T16:15:07.267Z,13.64
2023-01-01T16:17:52.171Z,13.79
2023-01-01T16:20:37.014Z,13.86
2023-01-01T16:23:21.860Z,13.87
2023-01-01T16:26:06.801Z,14.02
2023-01-01T16:28:51.767Z,13.66
2023-01-01T16:31:36.777Z,13.92
2023-01-01T16:34:21.543Z,13.35
2023-01-01T16:37:06.664Z,13.69
2023-01-01T16:39:51.469Z,13.49
2023-01-01T16:42:36.478Z,13.65
2023-01-01T16:45:21.477Z,13.77
2023-01-01T16:48:06.231Z,13.76
2023-01-01T16:50:51.266Z,13.52
2023-01-01T16:53:36.143Z,13.69
2023-01-01T16:56:21.105Z,13.37
2023-01-01T16:59:06.009Z,13.65
2023-01-01T17:01:51.056Z,13.36
2023-01-01T17:04:36.341Z,13.54
2023-01-01T17:07:21.172Z,13.27
2023-01-01T17:10:06.089Z,13.06
2023-01-01T17:12:50.795Z,13.23
2023-01-01T17:15:35.755Z,13.15
2023-01-01T17:18:23.974Z,13.50
2023-01-01T17:21:24.636Z,13.31
2023-01-01T17:24:09.611Z,13.10
2023-01-01T17:26:54.396Z,13.10
2023-01-01T17:29:39.303Z,13.23
2023-01-01T17:32:24.210Z,13.37
2023-01-01T17:35:09.174Z,13.41
2023-01-01T17:37:54.042Z,13.06
2023-01-01T17:40:38.811Z,13.19
2023-01-01T17:43:23.729Z,12.95
2023-01-01T17:46:08.859Z,13.25
2023-01-01T17:48:53.848Z,13.19
2023-01-01T17:51:38.611Z,13.36
2023-01-01T17:54:23.656Z,13.06
2023-01-01T17:57:08.352Z,12.93
2023-01-01T17:59:53.376Z,12.91
2023-01-01T18:02:38.346Z,12.94
2023-01-01T18:05:23.593Z,12.72
2023-01-01T18:08:08.458Z,12.99
2023-01-01T18:10:53.367Z,13.04
2023-01-01T18:13:38.244Z,13.18
2023-01-01T18:16:23.097Z,12.86
2023-01-01T18:19:08.030Z,12.86
2023-01-01T18:21:52.740Z,12.77
2023-01-01T18:24:37.578Z,12.87
2023-01-01T18:27:22.526Z,12.94
2023-01-01T18:30:07.459Z,12.79
2023-01-01T18:32:52.502Z,12.61
2023-01-01T18:35:37.305Z,12.87
2023-01-01T18:38:22.237Z,12.82
2023-01-01T18:41:07.141Z,12.78
2023-01-01T18:43:52.296Z,12.84
2023-01-01T18:46:37.147Z,12.51
2023-01-01T18:49:22.042Z,12.64
2023-01-01T18:52:06.966Z,12.23
2023-01-01T18:54:51.708Z,12.57
2023-01-01T18:57:36.693Z,12.63
2023-01-01T19:00:21.432Z,12.51
2023-01-01T19:03:06.455Z,12.38
2023-01-01T19:05:51.257Z,12.54
2023-01-01T19:08:36.413Z,12.41
2023-01-01T19:11:21.383Z,12.36
2023-01-01T19:14:06.179Z,12.12
2023-01-01T19:16:51.033Z,12.00
2023-01-01T19:19:35.917Z,11.79
2023-01-01T19:22:20.797Z,12.19
2023-01-01T19:25:05.644Z,12.16
2023-01-01T19:27:53.524Z,11.72
2023-01-01T19:30:38.536Z,11.99
2023-01-01T19:33:23.368Z,12.12
2023-01-01T19:36:08.312Z,11.96
2023-01-01T19:38:53.130Z,12.23
2023-01-01T19:41:38.011Z,12.07
2023-01-01T19:44:25.195Z,12.03
2023-01-01T19:47:10.365Z,12.05
2023-01-01T19:49:55.861Z,12.04
2023-01-01T19:52:41.241Z,11.67
2023-01-01T19:55:26.101Z,11.85
2023-01-01T19:58:10.889Z,11.93
2023-01-01T20:00:55.835Z,11.93
2023-01-01T20:03:54.089Z,12.00
2023-01-01T20:06:40.251Z,12.26
2023-01-01T20:09:25.060Z,12.31
2023-01-01T20:12:09.910Z,12.05
2023-01-01T20:14:54.749Z,12.30
2023-01-01T20:17:39.689Z,12.18
2023-01-01T20:20:24.588Z,12.11
2023-01-01T20:23:09.520Z,12.26
2023-01-01T20:25:54.251Z,12.04
2023-01-01T20:28:39.067Z,12.05
2023-01-01T20:31:24.015Z,12.01
2023-01-01T20:34:08.724Z,12.02
2023-01-01T20:36:53.765Z,11.87
2023-01-01T20:39:38.503Z,11.84
2023-01-01T20:42:23.559Z,11.81
2023-01-01T20:45:08.423Z,11.96
2023-01-01T20:47:53.304Z,11.91
2023-01-01T20:50:38.153Z,11.81
2023-01-01T20:53:23.053Z,11.81
2023-01-01T20:56:07.997Z,11.79
2023-01-01T20:58:58.993Z,11.85
2023-01-01T21:01:45.204Z,11.73
2023-01-01T21:04:30.611Z,11.99
2023-01-01T21:07:15.423Z,11.82
2023-01-01T21:10:00.360Z,11.58
2023-01-01T21:12:45.185Z,11.75
2023-01-01T21:15:30.082Z,11.64
2023-01-01T21:18:15.146Z,11.47
2023-01-01T21:20:59.988Z,11.57
2023-01-01T21:23:44.903Z,11.53
2023-01-01T21:26:29.742Z,11.49
2023-01-01T21:29:14.623Z,11.37
2023-01-01T21:31:59.880Z,11.66
2023-01-01T21:34:46.685Z,11.44
2023-01-01T21:37:31.501Z,11.47
2023-01-01T21:40:16.381Z,11.56
2023-01-01T21:43:01.347Z,11.73
2023-01-01T21:45:46.230Z,11.62
2023-01-01T21:48:30.961Z,11.61
2023-01-01T21:51:15.859Z,11.55
2023-01-01T21:54:00.816Z,11.57
2023-01-01T21:56:45.675Z,11.80
2023-01-01T21:59:30.589Z,11.79
2023-01-01T22:02:15.626Z,11.83
2023-01-01T22:05:00.796Z,11.76
2023-01-01T22:08:01.034Z,11.95
2023-01-01T22:10:46.059Z,11.91
2023-01-01T22:13:31.050Z,11.81
2023-01-01T22:16:15.909Z,11.78
2023-01-01T22:19:01.068Z,12.02
2023-01-01T22:21:45.933Z,11.94
2023-01-01T22:24:30.825Z,11.78
2023-01-01T22:27:15.743Z,11.93
2023-01-01T22:30:00.541Z,11.88
2023-01-01T22:32:45.476Z,12.19
2023-01-01T22:35:30.254Z,12.20
2023-01-01T22:38:15.074Z,11.72
2023-01-01T22:41:00.000Z,12.02
2023-01-01T22:43:44.896Z,12.11
2023-01-01T22:46:29.742Z,11.97
2023-01-01T22:49:14.653Z,12.18
2023-01-01T22:51:59.706Z,12.00
2023-01-01T22:54:44.612Z,12.05
2023-01-01T22:57:29.741Z,12.36
2023-01-01T23:00:14.507Z,12.40
2023-01-01T23:02:59.465Z,12.41
2023-01-01T23:05:44.609Z,12.63
2023-01-01T23:08:29.595Z,12.29
2023-01-01T23:11:14.442Z,12.40
2023-01-01T23:13:59.339Z,12.40
2023-01-01T23:16:44.358Z,12.25
2023-01-01T23:19:29.184Z,12.30
2023-01-01T23:22:13.995Z,11.89
2023-01-01T23:24:58.845Z,11.61
2023-01-01T23:27:43.732Z,12.07
2023-01-01T23:30:28.539Z,12.25
2023-01-01T23:33:13.370Z,12.40
2023-01-01T23:35:58.385Z,12.62
2023-01-01T23:38:43.213Z,12.44
2023-01-01T23:41:28.129Z,12.70
2023-01-01T23:44:12.985Z,12.67
2023-01-01T23:46:57.807Z,12.81
2023-01-01T23:49:42.620Z,12.74
2023-01-01T23:52:27.578Z,12.59
2023-01-01T23:55:12.489Z,12.62
2023-01-01T23:57:57.408Z,12.41
